• Join FlightAware (Why Join?)
  • Login
  • US Flag 
04:57PM EDT


 

Airport Tracker/Info


-or-


 

Live Flight TrackerFlight Track Log ✈ SLI2111 ✈ 10-May-2013 ✈ MMML / MXL - MMHO / HMO

Flight Track Log - Related Links

Times and Time Zones

All times are in EDT time to prevent confusion due to time zone crossing. See the SLI2111 flight status page for this flight to view local times or setup timezone preferences in your user account.

Time Position Orientation Groundspeed Altitude Reporting Facility
EDT Latitude Longitude Course Direction KTS MPH feet Rate Location/Type
08:14AM 32.3220 -114.8559 133° Southeast  Level Estimated
08:15AM 32.2446 -114.7599 134° Southeast  Level Estimated
08:16AM 32.1672 -114.6640 134° Southeast  Level Estimated
08:17AM 32.0897 -114.5683 134° Southeast  Level Estimated
08:18AM 32.0122 -114.4728 134° Southeast  Level Estimated
08:19AM 31.9345 -114.3774 134° Southeast  Level Estimated
08:20AM 31.8568 -114.2822 134° Southeast  Level Estimated
08:21AM 31.7790 -114.1872 134° Southeast  Level Estimated
08:22AM 31.7012 -114.0923 134° Southeast  Level Estimated
08:23AM 31.6233 -113.9976 134° Southeast  Level Estimated
08:24AM 31.5453 -113.9030 134° Southeast  Level Estimated
08:25AM 31.4672 -113.8086 134° Southeast  Level Estimated
08:26AM 31.3891 -113.7143 134° Southeast  Level Estimated
08:27AM 31.3109 -113.6202 134° Southeast  Level Estimated
08:28AM 31.2326 -113.5263 134° Southeast  Level Estimated
08:29AM 31.1543 -113.4325 134° Southeast  Level Estimated
08:30AM 31.0759 -113.3389 134° Southeast  Level Estimated
08:31AM 30.9974 -113.2454 134° Southeast  Level Estimated
08:32AM 30.9189 -113.1520 134° Southeast  Level Estimated
08:33AM 30.8403 -113.0589 134° Southeast  Level Estimated
08:34AM 30.7616 -112.9659 135° Southeast  Level Estimated
08:35AM 30.6829 -112.8730 135° Southeast  Level Estimated
08:36AM 30.6041 -112.7803 135° Southeast  Level Estimated
08:37AM 30.5252 -112.6877 135° Southeast  Level Estimated
08:38AM 30.4463 -112.5953 135° Southeast  Level Estimated
08:39AM 30.3673 -112.5030 135° Southeast  Level Estimated
08:40AM 30.2882 -112.4109 135° Southeast  Level Estimated
08:41AM 30.2091 -112.3189 135° Southeast  Level Estimated
08:42AM 30.1299 -112.2271 135° Southeast  Level Estimated
08:43AM 30.0507 -112.1354 135° Southeast  Level Estimated
08:44AM 29.9713 -112.0439 135° Southeast  Level Estimated
08:45AM 29.8920 -111.9525 135° Southeast  Level Estimated
08:46AM 29.8125 -111.8613 135° Southeast  Level Estimated
08:47AM 29.7330 -111.7702 135° Southeast  Level Estimated
08:48AM 29.6534 -111.6792 135° Southeast  Level Estimated
08:49AM 29.5738 -111.5884 135° Southeast  Level Estimated
08:50AM 29.4941 -111.4978 135° Southeast  Level Estimated
08:51AM 29.4144 -111.4073 135° Southeast  Level Estimated
08:52AM 29.3346 -111.3169 135° Southeast  Level Estimated
08:53AM 29.2547 -111.2267 135° Southeast  Level Estimated
08:54AM 29.1747 -111.1366 135° Southeast  Level Estimated
08:55AM 29.0959 -111.0479 135° Southeast  Level Estimated
08:56AM 29.0959 -111.0479 139° Southeast  Level Estimated
08:57AM 29.0959 -111.0479 139° Southeast  Level Estimated
08:58AM 29.0959 -111.0479 139° Southeast  Level Estimated
08:59AM 29.0959 -111.0479 139° Southeast  Level Estimated
09:00AM 29.0959 -111.0479 139° Southeast  Level Estimated
09:01AM 29.0959 -111.0479 139° Southeast  Level Estimated
09:02AM 29.0959 -111.0479 139° Southeast  Level Estimated
09:03AM 29.0959 -111.0479 139° Southeast  Level Estimated
09:04AM 29.0959 -111.0479 139° Southeast  Level Estimated
09:05AM 29.0959 -111.0479 139° Southeast  Level Estimated
09:06AM 29.0959 -111.0479 139° Southeast  Level Estimated
09:07AM 29.0959 -111.0479 139° Southeast  Level Estimated